createdAt,value
2022-11-12T00:00:06.182Z,45.50
2022-11-12T00:07:01.928Z,27.40
2022-11-12T00:10:25.347Z,31.27
2022-11-12T00:13:47.083Z,24.80
2022-11-12T00:17:08.599Z,27.25
2022-11-12T00:20:33.710Z,26.83
2022-11-12T00:24:02.975Z,27.38
2022-11-12T00:27:34.736Z,24.98
2022-11-12T00:31:01.161Z,25.75
2022-11-12T00:34:30.206Z,21.83
2022-11-12T00:38:04.789Z,23.83
2022-11-12T00:41:32.315Z,23.08
2022-11-12T00:45:05.855Z,26.02
2022-11-12T00:48:28.924Z,30.77
2022-11-12T00:51:53.187Z,30.40
2022-11-12T00:55:17.087Z,29.65
2022-11-12T00:58:49.675Z,28.33
2022-11-12T01:02:17.589Z,31.80
2022-11-12T01:05:41.641Z,29.73
2022-11-12T01:09:11.127Z,30.73
2022-11-12T01:12:35.131Z,31.40
2022-11-12T01:15:56.997Z,31.05
2022-11-12T01:19:21.275Z,38.22
2022-11-12T01:22:43.765Z,37.05
2022-11-12T01:26:12.797Z,30.35
2022-11-12T01:29:34.590Z,35.75
2022-11-12T01:33:01.302Z,34.70
2022-11-12T01:37:06.207Z,38.92
2022-11-12T01:44:57.181Z,37.22
2022-11-12T01:49:06.846Z,36.55
2022-11-12T01:53:05.410Z,28.00
2022-11-12T01:56:51.960Z,29.10
2022-11-12T02:00:23.501Z,31.42
2022-11-12T02:03:55.510Z,29.13
2022-11-12T02:07:18.862Z,28.17
2022-11-12T02:10:41.397Z,29.40
2022-11-12T02:14:03.505Z,30.65
2022-11-12T02:17:28.705Z,27.77
2022-11-12T02:21:08.740Z,24.67
2022-11-12T02:24:35.025Z,25.98
2022-11-12T02:28:00.466Z,21.88
2022-11-12T02:31:22.704Z,20.45
2022-11-12T02:34:44.406Z,16.00
2022-11-12T02:38:07.348Z,17.08
2022-11-12T02:41:29.152Z,15.90
2022-11-12T02:44:50.860Z,17.00
2022-11-12T02:48:16.552Z,21.70
2022-11-12T02:51:40.523Z,18.25
2022-11-12T02:55:02.199Z,23.83
2022-11-12T02:58:24.451Z,22.35
2022-11-12T03:01:46.220Z,25.08
2022-11-12T03:05:11.472Z,21.17
2022-11-12T03:08:33.186Z,22.58
2022-11-12T03:11:55.209Z,22.50
2022-11-12T03:15:18.481Z,20.08
2022-11-12T03:18:40.446Z,22.13
2022-11-12T03:22:05.339Z,26.67
2022-11-12T03:25:29.095Z,32.05
2022-11-12T03:28:54.686Z,32.20
2022-11-12T03:32:19.688Z,26.38
2022-11-12T03:35:44.767Z,28.25
2022-11-12T03:39:09.492Z,28.50
2022-11-12T03:42:32.216Z,26.02
2022-11-12T03:45:56.860Z,29.15
2022-11-12T03:49:18.804Z,28.50
2022-11-12T03:52:40.801Z,26.65
2022-11-12T03:56:02.325Z,29.20
2022-11-12T03:59:24.134Z,26.67
2022-11-12T04:02:48.818Z,24.17
2022-11-12T04:06:28.915Z,25.83
2022-11-12T04:09:50.413Z,27.48
2022-11-12T04:13:30.271Z,24.98
2022-11-12T04:17:11.811Z,26.25
2022-11-12T04:21:08.662Z,24.50
2022-11-12T04:24:58.433Z,26.13
2022-11-12T04:28:20.062Z,29.98
2022-11-12T04:31:41.620Z,24.55
2022-11-12T04:35:04.402Z,25.75
2022-11-12T04:38:26.409Z,23.58
2022-11-12T04:42:06.606Z,26.02
2022-11-12T04:45:28.091Z,20.98
2022-11-12T04:48:52.457Z,20.10
2022-11-12T04:52:14.054Z,23.02
2022-11-12T04:55:35.864Z,28.10
2022-11-12T04:58:57.625Z,17.33
2022-11-12T05:02:19.553Z,14.00
2022-11-12T05:05:41.213Z,14.35
2022-11-12T05:09:02.671Z,24.88
2022-11-12T05:12:24.304Z,15.52
2022-11-12T05:15:45.665Z,7.60
2022-11-12T05:19:07.063Z,7.95
2022-11-12T05:22:43.147Z,8.23
2022-11-12T05:26:05.931Z,9.70
2022-11-12T05:29:27.657Z,9.55
2022-11-12T05:32:49.195Z,7.72
2022-11-12T05:36:10.949Z,8.32
2022-11-12T05:39:32.605Z,8.70
2022-11-12T05:42:56.080Z,9.80
2022-11-12T05:46:17.946Z,12.68
2022-11-12T05:49:41.802Z,8.85
2022-11-12T05:53:03.595Z,10.40
2022-11-12T05:56:25.603Z,9.50
2022-11-12T05:59:57.167Z,9.75
2022-11-12T06:03:21.322Z,8.75
2022-11-12T06:06:44.260Z,10.23
2022-11-12T06:10:06.439Z,11.40
2022-11-12T06:13:31.967Z,11.93
2022-11-12T06:16:54.201Z,12.23
2022-11-12T06:20:19.081Z,14.95
2022-11-12T06:23:40.664Z,10.30
2022-11-12T06:27:02.555Z,12.35
2022-11-12T06:30:26.656Z,12.20
2022-11-12T06:33:49.000Z,10.27
2022-11-12T06:37:10.950Z,22.70
2022-11-12T06:40:34.651Z,13.25
2022-11-12T06:43:56.446Z,10.90
2022-11-12T06:47:17.648Z,10.55
2022-11-12T06:50:39.269Z,9.57
2022-11-12T06:54:01.118Z,10.52
2022-11-12T06:57:22.459Z,10.63
2022-11-12T07:00:44.478Z,34.25
2022-11-12T07:04:06.279Z,10.05
2022-11-12T07:07:29.444Z,9.80
2022-11-12T07:10:51.087Z,9.18
2022-11-12T07:14:12.907Z,8.25
2022-11-12T07:18:02.082Z,6.68
2022-11-12T07:21:23.616Z,12.18
2022-11-12T07:24:48.001Z,11.13
2022-11-12T07:28:09.632Z,10.70
2022-11-12T07:31:30.940Z,12.52
2022-11-12T07:34:52.568Z,10.95
2022-11-12T07:38:14.524Z,7.13
2022-11-12T07:41:38.893Z,6.72
2022-11-12T07:45:00.508Z,6.22
2022-11-12T07:48:22.339Z,6.30
2022-11-12T07:51:44.272Z,7.63
2022-11-12T07:55:09.114Z,10.15
2022-11-12T07:58:32.902Z,8.02
2022-11-12T08:01:54.553Z,8.73
2022-11-12T08:05:21.149Z,8.02
2022-11-12T08:08:46.965Z,7.35
2022-11-12T08:12:08.922Z,7.13
2022-11-12T08:15:32.396Z,7.13
2022-11-12T08:18:57.200Z,9.30
2022-11-12T08:22:25.596Z,14.73
2022-11-12T08:25:49.256Z,14.15
2022-11-12T08:29:10.849Z,14.80
2022-11-12T08:32:32.841Z,14.63
2022-11-12T08:35:55.530Z,19.23
2022-11-12T08:39:17.206Z,25.83
2022-11-12T08:42:39.029Z,23.42
2022-11-12T08:46:02.504Z,25.30
2022-11-12T08:49:24.405Z,23.98
2022-11-12T08:52:46.324Z,23.67
2022-11-12T08:56:11.273Z,27.13
2022-11-12T08:59:33.009Z,30.42
2022-11-12T09:02:56.693Z,33.83
2022-11-12T09:06:18.731Z,37.97
2022-11-12T09:09:43.427Z,37.65
2022-11-12T09:13:05.866Z,35.30
2022-11-12T09:16:27.539Z,36.15
2022-11-12T09:19:58.372Z,37.53
2022-11-12T09:23:22.608Z,37.40
2022-11-12T09:27:09.378Z,33.00
2022-11-12T09:30:51.952Z,32.17
2022-11-12T09:34:22.552Z,29.05
2022-11-12T09:42:30.044Z,21.90
2022-11-12T09:46:21.504Z,27.42
2022-11-12T09:54:14.848Z,21.08
2022-11-12T10:02:48.546Z,35.88
2022-11-12T10:06:39.165Z,11.80
2022-11-12T10:10:06.575Z,11.73
2022-11-12T10:13:40.824Z,16.50
2022-11-12T10:17:16.274Z,16.30
2022-11-12T10:21:12.672Z,22.92
2022-11-12T10:24:38.816Z,33.55
2022-11-12T10:28:51.563Z,40.17
2022-11-12T10:32:16.293Z,39.97
2022-11-12T10:45:39.285Z,34.67
2022-11-12T10:49:34.431Z,38.80
2022-11-12T10:53:02.388Z,38.88
2022-11-12T10:56:33.760Z,41.50
2022-11-12T11:00:17.659Z,34.83
2022-11-12T11:03:59.207Z,36.30
2022-11-12T11:07:26.278Z,34.95
2022-11-12T11:10:53.741Z,40.83
2022-11-12T11:14:24.426Z,39.55
2022-11-12T11:17:48.243Z,32.75
2022-11-12T11:21:43.092Z,32.65
2022-11-12T11:25:33.619Z,39.33
2022-11-12T11:29:28.742Z,29.60
2022-11-12T11:33:21.011Z,22.65
2022-11-12T11:37:01.521Z,18.80
2022-11-12T11:40:36.325Z,25.48
2022-11-12T11:44:45.885Z,25.08
2022-11-12T11:48:45.229Z,18.63
2022-11-12T11:53:46.426Z,19.25
2022-11-12T11:57:12.988Z,16.58
2022-11-12T12:01:30.836Z,22.52
2022-11-12T12:05:29.635Z,24.60
2022-11-12T12:09:20.732Z,28.50
2022-11-12T12:13:15.352Z,29.92
2022-11-12T12:17:00.214Z,30.08
2022-11-12T12:20:28.197Z,31.05
2022-11-12T12:25:11.501Z,28.02
2022-11-12T12:28:47.993Z,26.15
2022-11-12T12:32:42.995Z,23.42
2022-11-12T12:36:13.618Z,23.45
2022-11-12T12:40:19.791Z,20.08
2022-11-12T12:43:53.389Z,25.50
2022-11-12T12:51:57.458Z,33.65
2022-11-12T12:55:42.304Z,29.38
2022-11-12T12:59:28.540Z,28.92
2022-11-12T13:02:50.152Z,32.15
2022-11-12T13:06:24.597Z,27.08
2022-11-12T13:09:49.593Z,27.20
2022-11-12T13:13:49.469Z,25.85
2022-11-12T13:17:12.767Z,35.88
2022-11-12T13:20:39.624Z,58.65
2022-11-12T13:24:57.490Z,54.08
2022-11-12T13:32:51.658Z,55.33
2022-11-12T13:36:32.152Z,49.83
2022-11-12T13:39:56.620Z,47.53
2022-11-12T13:43:42.315Z,44.42
2022-11-12T13:47:26.879Z,39.05
2022-11-12T13:51:25.569Z,41.00
2022-11-12T13:55:07.952Z,38.58
2022-11-12T13:58:41.718Z,37.20
2022-11-12T14:02:30.190Z,39.38
2022-11-12T14:06:19.455Z,33.30
2022-11-12T14:14:53.212Z,30.92
2022-11-12T14:26:40.722Z,30.80
2022-11-12T14:30:25.869Z,21.67
2022-11-12T14:34:42.481Z,18.10
2022-11-12T14:38:11.802Z,16.95
2022-11-12T14:50:11.714Z,16.92
2022-11-12T14:53:42.918Z,17.08
2022-11-12T14:57:12.900Z,17.77
2022-11-12T15:00:51.120Z,25.48
2022-11-12T15:04:15.916Z,32.05
2022-11-12T15:07:55.517Z,37.85
2022-11-12T15:11:31.387Z,40.67
2022-11-12T15:15:11.948Z,35.30
2022-11-12T15:18:36.804Z,28.92
2022-11-12T15:22:03.473Z,29.63
2022-11-12T15:25:30.032Z,29.23
2022-11-12T15:29:16.064Z,30.65
2022-11-12T15:33:12.834Z,28.55
2022-11-12T15:36:34.306Z,29.17
2022-11-12T15:40:00.259Z,28.35
2022-11-12T15:46:48.251Z,29.60
2022-11-12T15:50:25.136Z,30.65
2022-11-12T15:54:27.606Z,34.92
2022-11-12T16:02:40.354Z,47.13
2022-11-12T16:06:07.367Z,43.08
2022-11-12T16:09:30.801Z,45.88
2022-11-12T16:12:56.793Z,46.42
2022-11-12T16:16:18.685Z,40.90
2022-11-12T16:19:41.596Z,41.95
2022-11-12T16:26:39.950Z,38.03
2022-11-12T16:30:06.080Z,44.08
2022-11-12T16:41:48.654Z,39.53
2022-11-12T16:45:10.777Z,36.97
2022-11-12T16:48:33.156Z,38.17
2022-11-12T16:52:39.294Z,35.63
2022-11-12T17:00:53.388Z,31.73
2022-11-12T17:09:00.204Z,31.02
2022-11-12T17:12:59.723Z,25.92
2022-11-12T17:16:21.584Z,25.92
2022-11-12T17:19:46.050Z,25.77
2022-11-12T17:23:07.813Z,25.85
2022-11-12T17:26:29.427Z,25.63
2022-11-12T17:29:51.349Z,26.27
2022-11-12T17:34:04.712Z,24.52
2022-11-12T17:37:28.209Z,25.75
2022-11-12T17:40:49.934Z,26.58
2022-11-12T17:44:23.680Z,25.42
2022-11-12T17:47:50.244Z,27.30
2022-11-12T17:51:17.159Z,25.02
2022-11-12T17:54:40.762Z,25.58
2022-11-12T17:58:02.872Z,25.48
2022-11-12T18:01:27.158Z,25.88
2022-11-12T18:04:48.884Z,27.40
2022-11-12T18:08:10.551Z,30.67
2022-11-12T18:11:41.665Z,40.60
2022-11-12T18:15:02.955Z,44.25
2022-11-12T18:18:25.144Z,44.63
2022-11-12T18:21:46.827Z,48.72
2022-11-12T18:25:12.175Z,48.88
2022-11-12T18:28:33.678Z,43.80
2022-11-12T18:32:56.442Z,35.05
2022-11-12T18:36:25.098Z,31.13
2022-11-12T18:39:46.873Z,28.45
2022-11-12T18:43:08.778Z,27.27
2022-11-12T18:46:33.083Z,26.85
2022-11-12T18:50:37.955Z,23.58
2022-11-12T18:54:01.420Z,21.85
2022-11-12T18:58:23.764Z,21.27
2022-11-12T19:01:44.826Z,19.42
2022-11-12T19:05:31.574Z,20.02
2022-11-12T19:08:58.436Z,19.50
2022-11-12T19:12:20.313Z,15.85
2022-11-12T19:15:42.315Z,17.38
2022-11-12T19:19:06.272Z,20.05
2022-11-12T19:23:00.811Z,21.13
2022-11-12T19:26:23.957Z,26.38
2022-11-12T19:29:48.449Z,29.50
2022-11-12T19:37:50.914Z,23.30
2022-11-12T19:41:40.349Z,23.60
2022-11-12T19:45:03.505Z,21.98
2022-11-12T19:53:37.352Z,18.63
2022-11-12T19:56:58.813Z,21.70
2022-11-12T20:00:22.901Z,21.33
2022-11-12T20:04:05.261Z,20.95
2022-11-12T20:07:32.380Z,20.33
2022-11-12T20:10:54.141Z,22.00
2022-11-12T20:14:15.615Z,20.58
2022-11-12T20:18:03.113Z,20.85
2022-11-12T20:21:25.410Z,20.90
2022-11-12T20:24:48.525Z,21.35
2022-11-12T20:38:09.374Z,16.52
2022-11-12T20:42:03.240Z,12.32
2022-11-12T20:45:25.478Z,11.57
2022-11-12T20:48:47.006Z,11.02
2022-11-12T20:52:08.718Z,11.73
2022-11-12T20:55:33.036Z,11.80
2022-11-12T20:58:55.558Z,12.35
2022-11-12T21:02:19.539Z,11.63
2022-11-12T21:05:43.904Z,11.50
2022-11-12T21:13:42.459Z,12.25
2022-11-12T21:17:04.226Z,11.88
2022-11-12T21:20:25.979Z,13.30
2022-11-12T21:23:49.819Z,15.63
2022-11-12T21:27:15.984Z,14.35
2022-11-12T21:30:37.582Z,13.32
2022-11-12T21:34:03.743Z,14.85
2022-11-12T21:37:25.208Z,13.25
2022-11-12T21:40:49.712Z,14.95
2022-11-12T21:44:11.215Z,14.48
2022-11-12T21:47:32.903Z,13.13
2022-11-12T21:50:56.221Z,12.55
2022-11-12T21:54:38.176Z,9.48
2022-11-12T21:57:59.937Z,11.60
2022-11-12T22:01:25.666Z,10.55
2022-11-12T22:05:30.282Z,11.40
2022-11-12T22:08:56.339Z,10.27
2022-11-12T22:12:17.689Z,11.70
2022-11-12T22:15:39.343Z,11.60
2022-11-12T22:19:01.228Z,13.50
2022-11-12T22:22:23.149Z,14.25
2022-11-12T22:25:45.177Z,14.98
2022-11-12T22:29:07.205Z,15.73
2022-11-12T22:32:28.600Z,15.07
2022-11-12T22:35:50.599Z,15.35
2022-11-12T22:39:12.248Z,12.25
2022-11-12T22:42:33.860Z,12.80
2022-11-12T22:45:55.621Z,13.07
2022-11-12T22:49:18.506Z,13.25
2022-11-12T22:52:44.547Z,13.13
2022-11-12T22:56:17.366Z,12.23
2022-11-12T22:59:49.146Z,12.85
2022-11-12T23:03:18.757Z,14.93
2022-11-12T23:06:47.212Z,14.77
2022-11-12T23:10:13.501Z,16.20
2022-11-12T23:13:56.646Z,18.13
2022-11-12T23:17:18.476Z,16.73
2022-11-12T23:20:58.204Z,19.00
2022-11-12T23:24:24.700Z,21.15
2022-11-12T23:27:50.973Z,22.33
2022-11-12T23:31:20.564Z,21.45
2022-11-12T23:58:22.816Z,20.30
